createdAt,value
2023-12-10T00:01:07.844Z,101836.67
2023-12-10T00:03:53.187Z,101827.55
2023-12-10T00:06:21.833Z,101825.40
2023-12-10T00:08:50.468Z,101828.08
2023-12-10T00:11:18.942Z,101823.25
2023-12-10T00:13:47.767Z,101818.95
2023-12-10T00:16:16.327Z,101816.64
2023-12-10T00:18:46.039Z,101815.03
2023-12-10T00:21:15.383Z,101809.65
2023-12-10T00:23:44.579Z,101805.16
2023-12-10T00:26:13.033Z,101802.30
2023-12-10T00:28:41.465Z,101802.48
2023-12-10T00:31:10.305Z,101802.84
2023-12-10T00:33:39.093Z,101801.94
2023-12-10T00:36:08.367Z,101799.59
2023-12-10T00:38:36.739Z,101797.75
2023-12-10T00:41:06.201Z,101797.75
2023-12-10T00:43:34.443Z,101795.42
2023-12-10T00:46:02.774Z,101794.32
2023-12-10T00:48:31.526Z,101789.33
2023-12-10T00:51:00.221Z,101793.26
2023-12-10T00:53:29.015Z,101791.27
2023-12-10T00:55:57.477Z,101788.80
2023-12-10T00:58:26.076Z,101788.07
2023-12-10T01:03:36.006Z,101795.04
2023-12-10T01:06:05.220Z,101798.23
2023-12-10T01:08:33.866Z,101799.27
2023-12-10T01:11:02.404Z,101807.13
2023-12-10T01:13:30.679Z,101806.94
2023-12-10T01:15:59.086Z,101805.30
2023-12-10T01:18:27.530Z,101809.77
2023-12-10T01:20:55.888Z,101813.52
2023-12-10T01:23:24.149Z,101814.58
2023-12-10T01:25:52.833Z,101810.81
2023-12-10T01:28:21.414Z,101806.33
2023-12-10T01:30:50.281Z,101801.51
2023-12-10T01:33:18.948Z,101802.02
2023-12-10T01:35:47.409Z,101806.83
2023-12-10T01:38:15.859Z,101812.36
2023-12-10T01:40:44.518Z,101814.14
2023-12-10T01:43:13.238Z,101811.45
2023-12-10T01:45:42.397Z,101810.73
2023-12-10T01:48:11.296Z,101805.17
2023-12-10T01:50:40.189Z,101805.34
2023-12-10T01:53:08.691Z,101804.44
2023-12-10T01:55:37.675Z,101803.36
2023-12-10T01:58:06.116Z,101808.19
2023-12-10T02:00:35.198Z,101798.90
2023-12-10T02:03:04.609Z,101792.63
2023-12-10T02:05:33.288Z,101795.48
2023-12-10T02:08:01.718Z,101794.40
2023-12-10T02:10:30.034Z,101796.35
2023-12-10T02:12:58.692Z,101799.91
2023-12-10T02:15:28.275Z,101802.95
2023-12-10T02:17:57.522Z,101807.77
2023-12-10T02:20:27.152Z,101806.86
2023-12-10T02:23:21.964Z,101810.08
2023-12-10T02:25:51.179Z,101813.82
2023-12-10T02:28:19.556Z,101815.95
2023-12-10T02:30:48.175Z,101806.48
2023-12-10T02:33:16.708Z,101807.54
2023-12-10T02:35:45.230Z,101814.48
2023-12-10T02:38:13.588Z,101815.74
2023-12-10T02:40:42.163Z,101814.65
2023-12-10T02:43:10.605Z,101809.64
2023-12-10T02:45:39.320Z,101811.07
2023-12-10T02:48:07.784Z,101810.87
2023-12-10T02:50:36.210Z,101805.66
2023-12-10T02:53:04.643Z,101795.48
2023-12-10T02:55:33.307Z,101788.68
2023-12-10T02:58:03.559Z,101793.15
2023-12-10T03:00:33.961Z,101795.64
2023-12-10T03:03:04.043Z,101793.52
2023-12-10T03:05:33.696Z,101804.05
2023-12-10T03:08:02.121Z,101805.49
2023-12-10T03:10:30.525Z,101800.85
2023-12-10T03:12:59.096Z,101800.33
2023-12-10T03:15:27.636Z,101802.64
2023-12-10T03:17:56.129Z,101799.61
2023-12-10T03:20:24.652Z,101804.82
2023-12-10T03:22:52.869Z,101808.91
2023-12-10T03:25:23.265Z,101812.14
2023-12-10T03:27:53.852Z,101813.02
2023-12-10T03:30:22.580Z,101806.06
2023-12-10T03:32:51.299Z,101801.77
2023-12-10T03:35:19.694Z,101801.95
2023-12-10T03:37:48.111Z,101803.56
2023-12-10T03:40:16.762Z,101807.14
2023-12-10T03:42:45.857Z,101804.62
2023-12-10T03:45:14.253Z,101808.19
2023-12-10T03:47:42.456Z,101801.74
2023-12-10T03:50:11.124Z,101798.52
2023-12-10T03:52:39.478Z,101796.56
2023-12-10T03:55:09.871Z,101796.02
2023-12-10T03:57:38.819Z,101798.69
2023-12-10T04:00:08.259Z,101803.50
2023-12-10T04:02:37.269Z,101803.30
2023-12-10T04:05:06.312Z,101796.33
2023-12-10T04:07:34.904Z,101791.31
2023-12-10T04:10:03.683Z,101792.56
2023-12-10T04:12:33.118Z,101792.55
2023-12-10T04:15:01.417Z,101790.95
2023-12-10T04:17:30.609Z,101785.41
2023-12-10T04:19:59.005Z,101782.36
2023-12-10T04:22:28.691Z,101785.38
2023-12-10T04:24:57.947Z,101790.35
2023-12-10T04:27:26.499Z,101788.55
2023-12-10T04:29:54.872Z,101792.62
2023-12-10T04:32:23.250Z,101800.29
2023-12-10T04:34:52.433Z,101793.29
2023-12-10T04:37:20.836Z,101792.39
2023-12-10T04:39:49.096Z,101793.09
2023-12-10T04:42:17.678Z,101791.64
2023-12-10T04:44:46.953Z,101793.23
2023-12-10T04:47:15.264Z,101796.60
2023-12-10T04:49:44.131Z,101800.69
2023-12-10T04:52:12.787Z,101802.48
2023-12-10T04:54:41.175Z,101803.17
2023-12-10T04:57:09.689Z,101799.94
2023-12-10T04:59:37.904Z,101798.85
2023-12-10T05:02:06.324Z,101795.09
2023-12-10T05:04:34.843Z,101799.71
2023-12-10T05:07:03.334Z,101796.30
2023-12-10T05:09:31.676Z,101793.95
2023-12-10T05:12:00.279Z,101798.05
2023-12-10T05:14:28.738Z,101805.16
2023-12-10T05:16:57.146Z,101809.45
2023-12-10T05:19:26.672Z,101809.80
2023-12-10T05:21:55.208Z,101816.02
2023-12-10T05:24:23.689Z,101816.35
2023-12-10T05:26:52.135Z,101818.27
2023-12-10T05:29:20.998Z,101815.16
2023-12-10T05:31:49.211Z,101818.87
2023-12-10T05:34:17.940Z,101827.95
2023-12-10T05:36:46.647Z,101832.58
2023-12-10T05:39:14.965Z,101836.14
2023-12-10T05:41:43.830Z,101841.84
2023-12-10T05:44:12.263Z,101848.95
2023-12-10T05:46:40.572Z,101854.12
2023-12-10T05:49:09.014Z,101854.30
2023-12-10T05:51:37.622Z,101854.80
2023-12-10T05:54:06.012Z,101858.36
2023-12-10T05:56:34.804Z,101857.98
2023-12-10T05:59:03.036Z,101860.84
2023-12-10T06:01:32.009Z,101865.64
2023-12-10T06:04:00.643Z,101870.80
2023-12-10T06:06:29.120Z,101871.50
2023-12-10T06:08:57.390Z,101867.55
2023-12-10T06:11:25.995Z,101870.55
2023-12-10T06:13:54.460Z,101877.29
2023-12-10T06:16:22.790Z,101887.78
2023-12-10T06:18:51.292Z,101888.46
2023-12-10T06:21:19.804Z,101889.13
2023-12-10T06:23:48.088Z,101884.10
2023-12-10T06:26:16.850Z,101889.23
2023-12-10T06:28:45.246Z,101890.77
2023-12-10T06:31:14.303Z,101895.17
2023-12-10T06:33:46.702Z,101900.48
2023-12-10T06:36:15.170Z,101897.95
2023-12-10T06:38:43.610Z,101900.75
2023-12-10T06:41:12.090Z,101907.11
2023-12-10T06:43:40.444Z,101914.73
2023-12-10T06:46:08.743Z,101916.80
2023-12-10T06:48:37.334Z,101920.31
2023-12-10T06:51:06.251Z,101924.91
2023-12-10T06:53:34.624Z,101927.55
2023-12-10T06:56:03.479Z,101930.20
2023-12-10T06:58:31.871Z,101926.05
2023-12-10T07:01:00.395Z,101924.42
2023-12-10T07:03:28.864Z,101925.98
2023-12-10T07:05:57.364Z,101924.36
2023-12-10T07:08:25.951Z,101920.27
2023-12-10T07:10:54.355Z,101922.05
2023-12-10T07:13:22.672Z,101925.96
2023-12-10T07:15:51.525Z,101920.99
2023-12-10T07:18:20.296Z,101912.83
2023-12-10T07:20:48.708Z,101913.39
2023-12-10T07:23:17.084Z,101914.50
2023-12-10T07:25:45.900Z,101918.44
2023-12-10T07:28:14.095Z,101925.80
2023-12-10T07:30:42.337Z,101929.41
2023-12-10T07:33:10.996Z,101936.27
2023-12-10T07:35:39.679Z,101936.50
2023-12-10T07:38:08.542Z,101943.52
2023-12-10T07:40:37.372Z,101950.93
2023-12-10T07:43:06.690Z,101948.10
2023-12-10T07:45:35.256Z,101952.65
2023-12-10T07:48:04.926Z,101944.81
2023-12-10T07:50:33.327Z,101942.31
2023-12-10T07:53:04.412Z,101940.99
2023-12-10T07:55:34.587Z,101947.92
2023-12-10T07:58:03.389Z,101947.48
2023-12-10T08:00:31.931Z,101951.94
2023-12-10T08:03:00.854Z,101959.13
2023-12-10T08:05:29.333Z,101961.11
2023-12-10T08:07:58.531Z,101961.02
2023-12-10T08:10:27.030Z,101962.55
2023-12-10T08:12:56.164Z,101964.61
2023-12-10T08:15:24.896Z,101970.70
2023-12-10T08:17:54.368Z,101974.73
2023-12-10T08:20:23.580Z,101975.02
2023-12-10T08:22:51.977Z,101972.55
2023-12-10T08:25:20.395Z,101974.08
2023-12-10T08:27:48.935Z,101975.23
2023-12-10T08:30:18.369Z,101973.93
2023-12-10T08:32:46.832Z,101974.34
2023-12-10T08:35:15.159Z,101973.32
2023-12-10T08:37:43.822Z,101981.03
2023-12-10T08:40:12.486Z,101985.33
2023-12-10T08:42:41.807Z,101989.95
2023-12-10T08:45:10.369Z,101992.07
2023-12-10T08:47:39.100Z,101995.89
2023-12-10T08:50:07.912Z,101997.63
2023-12-10T08:52:36.248Z,101999.98
2023-12-10T08:55:04.998Z,101996.54
2023-12-10T08:57:33.556Z,101995.61
2023-12-10T09:00:02.130Z,101995.98
2023-12-10T09:02:31.833Z,101997.48
2023-12-10T09:05:00.662Z,101999.99
2023-12-10T09:07:31.269Z,102005.93
2023-12-10T09:10:08.236Z,102009.91
2023-12-10T09:12:40.688Z,102011.18
2023-12-10T09:15:09.859Z,102013.75
2023-12-10T09:17:38.386Z,102014.94
2023-12-10T09:20:08.970Z,102021.03
2023-12-10T09:22:37.237Z,102019.55
2023-12-10T09:25:06.650Z,102018.62
2023-12-10T09:27:35.129Z,102022.36
2023-12-10T09:30:03.929Z,102024.36
2023-12-10T09:32:32.664Z,102028.33
2023-12-10T09:35:03.426Z,102033.52
2023-12-10T09:37:31.833Z,102033.36
2023-12-10T09:40:00.639Z,102036.30
2023-12-10T09:42:29.623Z,102037.42
2023-12-10T09:44:58.253Z,102037.16
2023-12-10T09:47:28.297Z,102037.11
2023-12-10T09:49:59.746Z,102034.30
2023-12-10T09:52:28.619Z,102030.40
2023-12-10T09:54:57.437Z,102033.20
2023-12-10T09:57:26.254Z,102037.75
2023-12-10T09:59:55.276Z,102033.45
2023-12-10T10:02:34.827Z,102032.28
2023-12-10T10:05:05.305Z,102032.20
2023-12-10T10:07:33.921Z,102035.18
2023-12-10T10:10:02.543Z,102032.17
2023-12-10T10:12:32.631Z,102033.09
2023-12-10T10:15:02.268Z,102032.45
2023-12-10T10:17:33.437Z,102029.58
2023-12-10T10:20:03.972Z,102027.60
2023-12-10T10:22:32.808Z,102029.16
2023-12-10T10:25:01.370Z,102026.54
2023-12-10T10:27:30.484Z,102021.70
2023-12-10T10:30:03.217Z,102024.48
2023-12-10T10:32:32.058Z,102022.94
2023-12-10T10:35:04.612Z,102022.15
2023-12-10T10:37:33.093Z,102019.64
2023-12-10T10:40:02.082Z,102024.09
2023-12-10T10:42:31.683Z,102023.33
2023-12-10T10:45:02.668Z,102020.43
2023-12-10T10:47:33.941Z,102020.65
2023-12-10T10:50:20.890Z,102018.55
2023-12-10T10:52:57.380Z,102016.27
2023-12-10T10:55:26.589Z,102015.54
2023-12-10T10:57:55.748Z,102013.84
2023-12-10T11:00:27.444Z,102010.93
2023-12-10T11:02:56.337Z,102012.17
2023-12-10T11:05:32.620Z,102004.17
2023-12-10T11:08:02.482Z,102002.66
2023-12-10T11:10:31.403Z,101999.85
2023-12-10T11:13:01.139Z,101993.67
2023-12-10T11:15:30.470Z,101988.69
2023-12-10T11:18:01.394Z,101987.42
2023-12-10T11:20:43.699Z,101988.63
2023-12-10T11:23:16.987Z,101986.27
2023-12-10T11:25:46.206Z,101985.92
2023-12-10T11:28:16.553Z,101978.44
2023-12-10T11:30:46.306Z,101972.97
2023-12-10T11:33:16.813Z,101964.87
2023-12-10T11:36:17.277Z,101958.95
2023-12-10T11:38:34.874Z,101955.41
2023-12-10T11:41:05.210Z,101951.48
2023-12-10T11:43:33.954Z,101948.61
2023-12-10T11:46:03.009Z,101943.55
2023-12-10T11:48:32.590Z,101936.73
2023-12-10T11:51:01.540Z,101931.39
2023-12-10T11:53:30.349Z,101929.86
2023-12-10T11:55:59.810Z,101932.20
2023-12-10T11:58:29.094Z,101925.64
2023-12-10T12:01:00.157Z,101923.97
2023-12-10T12:03:32.714Z,101924.38
2023-12-10T12:06:01.739Z,101920.00
2023-12-10T12:08:31.184Z,101913.25
2023-12-10T12:11:00.106Z,101905.45
2023-12-10T12:13:29.884Z,101904.92
2023-12-10T12:15:58.893Z,101904.48
2023-12-10T12:18:28.451Z,101904.14
2023-12-10T12:20:57.717Z,101903.23
2023-12-10T12:23:26.646Z,101900.04
2023-12-10T12:25:56.240Z,101891.75
2023-12-10T12:28:25.321Z,101893.25
2023-12-10T12:30:54.807Z,101888.55
2023-12-10T12:33:23.853Z,101885.81
2023-12-10T12:35:52.574Z,101884.00
2023-12-10T12:38:21.041Z,101878.71
2023-12-10T12:40:49.442Z,101870.83
2023-12-10T12:43:18.728Z,101865.38
2023-12-10T12:45:47.005Z,101862.63
2023-12-10T12:48:15.547Z,101862.10
2023-12-10T12:50:44.470Z,101857.64
2023-12-10T12:53:14.091Z,101851.16
2023-12-10T12:55:43.109Z,101851.81
2023-12-10T12:58:12.379Z,101847.22
2023-12-10T13:00:40.769Z,101849.76
2023-12-10T13:03:10.471Z,101839.48
2023-12-10T13:05:39.273Z,101838.39
2023-12-10T13:08:07.689Z,101836.10
2023-12-10T13:10:36.235Z,101828.70
2023-12-10T13:13:04.873Z,101826.93
2023-12-10T13:15:33.933Z,101824.27
2023-12-10T13:18:02.668Z,101816.12
2023-12-10T13:20:31.593Z,101815.84
2023-12-10T13:23:00.686Z,101811.54
2023-12-10T13:25:28.898Z,101802.23
2023-12-10T13:27:57.466Z,101795.73
2023-12-10T13:30:26.247Z,101787.47
2023-12-10T13:32:54.713Z,101781.09
2023-12-10T13:35:23.947Z,101774.16
2023-12-10T13:37:52.138Z,101771.02
2023-12-10T13:40:20.658Z,101769.77
2023-12-10T13:42:49.508Z,101767.23
2023-12-10T13:45:17.873Z,101760.73
2023-12-10T13:47:46.432Z,101758.08
2023-12-10T13:50:16.224Z,101753.09
2023-12-10T13:52:45.314Z,101748.10
2023-12-10T13:55:14.320Z,101744.85
2023-12-10T13:57:43.133Z,101745.80
2023-12-10T14:00:12.516Z,101740.70
2023-12-10T14:02:41.669Z,101738.56
2023-12-10T14:05:09.942Z,101739.73
2023-12-10T14:07:38.251Z,101740.70
2023-12-10T14:10:07.243Z,101728.65
2023-12-10T14:12:35.706Z,101731.84
2023-12-10T14:15:04.571Z,101732.52
2023-12-10T14:17:33.673Z,101729.88
2023-12-10T14:20:04.104Z,101721.29
2023-12-10T14:22:33.616Z,101718.41
2023-12-10T14:25:02.298Z,101716.79
2023-12-10T14:27:33.367Z,101717.10
2023-12-10T14:30:01.747Z,101718.15
2023-12-10T14:32:30.050Z,101717.39
2023-12-10T14:34:58.743Z,101714.45
2023-12-10T14:37:27.506Z,101713.20
2023-12-10T14:39:56.521Z,101714.58
2023-12-10T14:42:26.110Z,101710.41
2023-12-10T14:44:54.513Z,101716.20
2023-12-10T14:47:22.790Z,101715.90
2023-12-10T14:49:52.119Z,101717.58
2023-12-10T14:52:20.604Z,101718.05
2023-12-10T14:54:49.484Z,101722.59
2023-12-10T14:57:17.884Z,101725.08
2023-12-10T14:59:46.461Z,101724.11
2023-12-10T15:02:15.130Z,101724.83
2023-12-10T15:04:43.557Z,101726.22
2023-12-10T15:07:13.022Z,101728.80
2023-12-10T15:09:41.339Z,101730.94
2023-12-10T15:12:10.441Z,101734.45
2023-12-10T15:14:39.573Z,101732.72
2023-12-10T15:17:08.058Z,101729.41
2023-12-10T15:19:36.449Z,101727.26
2023-12-10T15:22:06.567Z,101724.91
2023-12-10T15:24:36.174Z,101726.05
2023-12-10T15:27:04.858Z,101726.79
2023-12-10T15:29:33.990Z,101724.40
2023-12-10T15:32:02.376Z,101727.46
2023-12-10T15:34:31.054Z,101718.80
2023-12-10T15:36:59.868Z,101731.28
2023-12-10T15:39:29.149Z,101727.75
2023-12-10T15:41:58.152Z,101732.66
2023-12-10T15:44:26.394Z,101741.65
2023-12-10T15:46:54.905Z,101742.20
2023-12-10T15:49:23.400Z,101730.02
2023-12-10T15:51:53.406Z,101734.14
2023-12-10T15:54:22.183Z,101730.20
2023-12-10T15:56:50.502Z,101726.41
2023-12-10T15:59:18.688Z,101731.61
2023-12-10T16:01:47.150Z,101730.89
2023-12-10T16:04:15.651Z,101734.25
2023-12-10T16:06:44.292Z,101735.32
2023-12-10T16:09:12.681Z,101744.25
2023-12-10T16:11:41.467Z,101746.20
2023-12-10T16:14:11.184Z,101744.17
2023-12-10T16:16:39.827Z,101743.42
2023-12-10T16:19:08.845Z,101742.84
2023-12-10T16:21:37.773Z,101742.45
2023-12-10T16:24:06.614Z,101746.90
2023-12-10T16:26:39.422Z,101754.75
2023-12-10T16:29:07.906Z,101757.43
2023-12-10T16:31:36.406Z,101764.55
2023-12-10T16:34:04.881Z,101768.85
2023-12-10T16:36:36.271Z,101770.05
2023-12-10T16:39:04.834Z,101770.42
2023-12-10T16:41:34.782Z,101772.56
2023-12-10T16:44:04.005Z,101766.77
2023-12-10T16:46:39.391Z,101764.39
2023-12-10T16:49:08.242Z,101767.77
2023-12-10T16:51:37.144Z,101772.77
2023-12-10T16:54:06.116Z,101776.35
2023-12-10T16:56:34.522Z,101784.59
2023-12-10T16:59:02.819Z,101789.79
2023-12-10T17:01:32.021Z,101791.20
2023-12-10T17:04:01.031Z,101795.86
2023-12-10T17:06:29.855Z,101797.30
2023-12-10T17:08:58.372Z,101798.71
2023-12-10T17:11:28.407Z,101798.33
2023-12-10T17:13:56.664Z,101803.86
2023-12-10T17:16:25.238Z,101798.83
2023-12-10T17:18:54.801Z,101804.71
2023-12-10T17:21:23.491Z,101806.30
2023-12-10T17:23:52.447Z,101806.64
2023-12-10T17:26:20.843Z,101805.89
2023-12-10T17:28:49.126Z,101809.27
2023-12-10T17:31:17.617Z,101807.98
2023-12-10T17:33:46.314Z,101804.23
2023-12-10T17:36:15.878Z,101805.98
2023-12-10T17:38:44.211Z,101807.40
2023-12-10T17:41:12.591Z,101802.40
2023-12-10T17:43:41.074Z,101804.02
2023-12-10T17:46:09.435Z,101805.08
2023-12-10T17:48:37.957Z,101809.35
2023-12-10T17:51:13.768Z,101812.74
2023-12-10T17:53:45.107Z,101811.30
2023-12-10T17:56:15.302Z,101810.95
2023-12-10T17:58:44.024Z,101808.08
2023-12-10T18:01:13.510Z,101808.60
2023-12-10T18:03:42.211Z,101802.52
2023-12-10T18:06:10.616Z,101808.05
2023-12-10T18:08:39.408Z,101807.16
2023-12-10T18:11:07.860Z,101810.20
2023-12-10T18:13:36.763Z,101814.84
2023-12-10T18:16:07.582Z,101817.69
2023-12-10T18:18:36.005Z,101820.35
2023-12-10T18:21:04.958Z,101823.19
2023-12-10T18:23:33.308Z,101821.73
2023-12-10T18:26:01.724Z,101820.98
2023-12-10T18:28:30.041Z,101823.45
2023-12-10T18:31:00.215Z,101822.19
2023-12-10T18:33:29.779Z,101824.14
2023-12-10T18:35:58.889Z,101824.48
2023-12-10T18:38:27.151Z,101822.49
2023-12-10T18:40:55.367Z,101824.92
2023-12-10T18:43:24.346Z,101826.14
2023-12-10T18:45:52.966Z,101825.95
2023-12-10T18:48:21.774Z,101821.47
2023-12-10T18:50:50.360Z,101825.39
2023-12-10T18:53:18.616Z,101821.43
2023-12-10T18:55:46.872Z,101813.92
2023-12-10T18:58:15.754Z,101811.06
2023-12-10T19:00:44.503Z,101813.39
2023-12-10T19:03:12.901Z,101814.85
2023-12-10T19:05:41.800Z,101815.71
2023-12-10T19:08:10.134Z,101817.31
2023-12-10T19:10:39.093Z,101815.71
2023-12-10T19:13:10.904Z,101820.69
2023-12-10T19:15:39.513Z,101822.45
2023-12-10T19:18:08.048Z,101820.65
2023-12-10T19:20:37.097Z,101818.84
2023-12-10T19:23:05.364Z,101813.64
2023-12-10T19:25:33.721Z,101810.94
2023-12-10T19:28:02.795Z,101808.61
2023-12-10T19:30:31.398Z,101810.90
2023-12-10T19:32:59.837Z,101816.59
2023-12-10T19:35:29.448Z,101817.62
2023-12-10T19:37:58.405Z,101817.42
2023-12-10T19:40:26.633Z,101821.66
2023-12-10T19:42:54.889Z,101821.98
2023-12-10T19:45:23.778Z,101816.41
2023-12-10T19:47:52.186Z,101806.91
2023-12-10T19:50:22.031Z,101803.31
2023-12-10T19:52:50.773Z,101804.33
2023-12-10T19:55:18.992Z,101802.34
2023-12-10T19:57:47.620Z,101802.30
2023-12-10T20:00:16.290Z,101805.52
2023-12-10T20:02:44.779Z,101804.45
2023-12-10T20:05:13.513Z,101802.84
2023-12-10T20:07:42.209Z,101801.58
2023-12-10T20:10:10.768Z,101798.39
2023-12-10T20:12:39.862Z,101799.95
2023-12-10T20:15:11.279Z,101793.67
2023-12-10T20:17:41.209Z,101789.90
2023-12-10T20:20:10.013Z,101783.27
2023-12-10T20:22:38.390Z,101778.45
2023-12-10T20:25:10.991Z,101775.60
2023-12-10T20:27:44.772Z,101773.45
2023-12-10T20:30:14.044Z,101778.45
2023-12-10T20:32:42.485Z,101775.04
2023-12-10T20:35:11.453Z,101775.91
2023-12-10T20:37:39.935Z,101779.67
2023-12-10T20:40:09.244Z,101775.20
2023-12-10T20:42:38.173Z,101774.31
2023-12-10T20:45:07.471Z,101775.36
2023-12-10T20:47:35.757Z,101770.39
2023-12-10T20:50:04.496Z,101774.48
2023-12-10T20:52:33.959Z,101770.56
2023-12-10T20:55:02.846Z,101768.23
2023-12-10T20:57:31.434Z,101765.70
2023-12-10T21:00:00.061Z,101765.44
2023-12-10T21:02:30.153Z,101767.65
2023-12-10T21:04:59.428Z,101769.00
2023-12-10T21:07:28.041Z,101767.64
2023-12-10T21:09:56.635Z,101771.54
2023-12-10T21:12:25.395Z,101775.90
2023-12-10T21:14:53.694Z,101774.77
2023-12-10T21:17:23.289Z,101777.58
2023-12-10T21:19:52.191Z,101775.05
2023-12-10T21:22:20.889Z,101773.45
2023-12-10T21:24:49.127Z,101776.52
2023-12-10T21:27:17.509Z,101777.55
2023-12-10T21:29:45.858Z,101772.73
2023-12-10T21:32:14.064Z,101778.63
2023-12-10T21:34:43.936Z,101781.65
2023-12-10T21:37:12.733Z,101783.44
2023-12-10T21:39:42.223Z,101780.04
2023-12-10T21:42:10.860Z,101779.67
2023-12-10T21:44:39.174Z,101775.02
2023-12-10T21:47:07.515Z,101770.59
2023-12-10T21:49:39.756Z,101772.77
2023-12-10T21:52:08.698Z,101776.67
2023-12-10T21:54:37.181Z,101775.05
2023-12-10T21:57:05.485Z,101769.86
2023-12-10T21:59:33.807Z,101765.39
2023-12-10T22:02:02.474Z,101773.95
2023-12-10T22:04:30.980Z,101777.30
2023-12-10T22:06:59.599Z,101775.13
2023-12-10T22:09:28.153Z,101770.63
2023-12-10T22:11:56.479Z,101768.09
2023-12-10T22:14:24.704Z,101769.11
2023-12-10T22:16:53.902Z,101772.84
2023-12-10T22:19:22.499Z,101773.18
2023-12-10T22:21:51.495Z,101771.36
2023-12-10T22:24:20.913Z,101762.23
2023-12-10T22:26:49.345Z,101749.38
2023-12-10T22:29:18.091Z,101744.36
2023-12-10T22:31:46.355Z,101748.27
2023-12-10T22:34:14.655Z,101758.24
2023-12-10T22:36:43.406Z,101766.77
2023-12-10T22:39:12.017Z,101776.19
2023-12-10T22:41:40.389Z,101774.03
2023-12-10T22:44:08.940Z,101768.86
2023-12-10T22:46:37.270Z,101764.02
2023-12-10T22:49:05.679Z,101759.39
2023-12-10T22:51:34.285Z,101749.41
2023-12-10T22:54:02.864Z,101739.77
2023-12-10T22:56:32.586Z,101729.55
2023-12-10T22:59:01.144Z,101734.72
2023-12-10T23:01:29.509Z,101734.39
2023-12-10T23:03:57.906Z,101733.56
2023-12-10T23:06:26.645Z,101738.59
2023-12-10T23:08:55.606Z,101741.46
2023-12-10T23:11:24.153Z,101741.66
2023-12-10T23:13:52.642Z,101735.44
2023-12-10T23:16:20.976Z,101725.98
2023-12-10T23:18:49.523Z,101720.27
2023-12-10T23:21:18.068Z,101726.33
2023-12-10T23:23:46.428Z,101727.78
2023-12-10T23:26:14.709Z,101730.11
2023-12-10T23:28:43.639Z,101728.86
2023-12-10T23:31:12.215Z,101722.64
2023-12-10T23:33:41.093Z,101720.53
2023-12-10T23:36:09.657Z,101716.84
2023-12-10T23:38:39.698Z,101712.62
2023-12-10T23:41:09.033Z,101708.39
2023-12-10T23:43:37.619Z,101710.76
2023-12-10T23:46:10.413Z,101704.22
2023-12-10T23:48:39.692Z,101706.58
2023-12-10T23:51:21.295Z,101705.19
2023-12-10T23:53:49.932Z,101704.29
2023-12-10T23:56:18.313Z,101695.56
2023-12-10T23:58:46.910Z,101690.55
